sensor_id;sensor_type;location;lat;lon;timestamp;pressure;altitude;pressure_sealevel;temperature;humidity
30421;BME280;17218;54.070;10.012;2023-03-21T00:01:37;101327.34;;;7.25;100.00
30421;BME280;17218;54.070;10.012;2023-03-21T00:04:03;101333.47;;;7.30;100.00
30421;BME280;17218;54.070;10.012;2023-03-21T00:06:30;101330.81;;;7.25;100.00
30421;BME280;17218;54.070;10.012;2023-03-21T00:08:57;101340.03;;;7.11;100.00
30421;BME280;17218;54.070;10.012;2023-03-21T00:11:23;101333.06;;;7.07;100.00
30421;BME280;17218;54.070;10.012;2023-03-21T00:13:49;101334.00;;;7.10;100.00
30421;BME280;17218;54.070;10.012;2023-03-21T00:16:18;101332.25;;;7.08;100.00
30421;BME280;17218;54.070;10.012;2023-03-21T00:18:47;101328.81;;;7.07;100.00
30421;BME280;17218;54.070;10.012;2023-03-21T00:21:18;101328.69;;;7.01;100.00
30421;BME280;17218;54.070;10.012;2023-03-21T00:23:45;101327.84;;;7.02;100.00
30421;BME280;17218;54.070;10.012;2023-03-21T00:26:13;101325.31;;;7.03;100.00
30421;BME280;17218;54.070;10.012;2023-03-21T00:28:41;101328.84;;;7.10;100.00
30421;BME280;17218;54.070;10.012;2023-03-21T00:31:08;101318.69;;;7.20;100.00
30421;BME280;17218;54.070;10.012;2023-03-21T00:33:35;101324.69;;;7.19;100.00
30421;BME280;17218;54.070;10.012;2023-03-21T00:36:05;101315.19;;;7.16;100.00
30421;BME280;17218;54.070;10.012;2023-03-21T00:38:32;101325.59;;;7.21;100.00
30421;BME280;17218;54.070;10.012;2023-03-21T00:40:59;101311.72;;;7.14;100.00
30421;BME280;17218;54.070;10.012;2023-03-21T00:43:25;101322.88;;;7.13;100.00
30421;BME280;17218;54.070;10.012;2023-03-21T00:45:55;101314.28;;;7.12;100.00
30421;BME280;17218;54.070;10.012;2023-03-21T00:48:22;101317.88;;;7.21;100.00
30421;BME280;17218;54.070;10.012;2023-03-21T00:50:50;101319.69;;;7.26;100.00
30421;BME280;17218;54.070;10.012;2023-03-21T00:53:20;101316.22;;;7.26;100.00
30421;BME280;17218;54.070;10.012;2023-03-21T00:55:46;101317.13;;;7.28;100.00
30421;BME280;17218;54.070;10.012;2023-03-21T00:58:13;101318.06;;;7.35;100.00
30421;BME280;17218;54.070;10.012;2023-03-21T01:00:40;101308.34;;;7.16;100.00
30421;BME280;17218;54.070;10.012;2023-03-21T01:03:08;101313.63;;;7.24;100.00
30421;BME280;17218;54.070;10.012;2023-03-21T01:05:38;101307.63;;;7.27;100.00
30421;BME280;17218;54.070;10.012;2023-03-21T01:08:25;101309.56;;;7.39;100.00
30421;BME280;17218;54.070;10.012;2023-03-21T01:10:52;101299.31;;;7.45;100.00
30421;BME280;17218;54.070;10.012;2023-03-21T01:13:21;101300.16;;;7.43;100.00
30421;BME280;17218;54.070;10.012;2023-03-21T01:15:49;101295.09;;;7.49;100.00
30421;BME280;17218;54.070;10.012;2023-03-21T01:18:19;101299.16;;;7.34;100.00
30421;BME280;17218;54.070;10.012;2023-03-21T01:20:47;101301.53;;;7.20;100.00
30421;BME280;17218;54.070;10.012;2023-03-21T01:23:14;101298.03;;;7.16;100.00
30421;BME280;17218;54.070;10.012;2023-03-21T01:25:42;101302.44;;;7.24;100.00
30421;BME280;17218;54.070;10.012;2023-03-21T01:28:09;101290.28;;;7.15;100.00
30421;BME280;17218;54.070;10.012;2023-03-21T01:30:36;101301.53;;;7.20;100.00
30421;BME280;17218;54.070;10.012;2023-03-21T01:33:02;101298.94;;;7.19;100.00
30421;BME280;17218;54.070;10.012;2023-03-21T01:35:29;101294.66;;;7.19;100.00
30421;BME280;17218;54.070;10.012;2023-03-21T01:37:55;101288.66;;;7.22;100.00
30421;BME280;17218;54.070;10.012;2023-03-21T01:40:27;101296.66;;;7.37;100.00
30421;BME280;17218;54.070;10.012;2023-03-21T01:42:54;101289.09;;;7.50;100.00
30421;BME280;17218;54.070;10.012;2023-03-21T01:46:05;101288.19;;;7.48;100.00
30421;BME280;17218;54.070;10.012;2023-03-21T01:48:34;101288.94;;;7.39;100.00
30421;BME280;17218;54.070;10.012;2023-03-21T01:51:02;101282.00;;;7.35;100.00
30421;BME280;17218;54.070;10.012;2023-03-21T01:53:30;101281.34;;;7.48;100.00
30421;BME280;17218;54.070;10.012;2023-03-21T01:56:02;101280.56;;;7.56;100.00
30421;BME280;17218;54.070;10.012;2023-03-21T01:58:30;101278.91;;;7.59;100.00
30421;BME280;17218;54.070;10.012;2023-03-21T02:00:56;101280.63;;;7.60;100.00
30421;BME280;17218;54.070;10.012;2023-03-21T02:03:24;101277.13;;;7.57;100.00
30421;BME280;17218;54.070;10.012;2023-03-21T02:05:57;101271.16;;;7.59;100.00
30421;BME280;17218;54.070;10.012;2023-03-21T02:08:25;101277.97;;;7.53;100.00
30421;BME280;17218;54.070;10.012;2023-03-21T02:10:51;101276.22;;;7.53;100.00
30421;BME280;17218;54.070;10.012;2023-03-21T02:13:18;101278.06;;;7.62;100.00
30421;BME280;17218;54.070;10.012;2023-03-21T02:15:54;101276.22;;;7.51;100.00
30421;BME280;17218;54.070;10.012;2023-03-21T02:18:26;101276.19;;;7.50;100.00
30421;BME280;17218;54.070;10.012;2023-03-21T02:21:23;101269.34;;;7.50;100.00
30421;BME280;17218;54.070;10.012;2023-03-21T02:24:26;101268.66;;;7.66;100.00
30421;BME280;17218;54.070;10.012;2023-03-21T02:27:20;101269.47;;;7.60;100.00
30421;BME280;17218;54.070;10.012;2023-03-21T02:33:13;101266.56;;;7.38;100.00
30421;BME280;17218;54.070;10.012;2023-03-21T02:35:52;101255.59;;;7.51;100.00
30421;BME280;17218;54.070;10.012;2023-03-21T02:38:26;101263.47;;;7.64;100.00
30421;BME280;17218;54.070;10.012;2023-03-21T02:41:02;101245.50;;;7.67;100.00
30421;BME280;17218;54.070;10.012;2023-03-21T02:43:35;101254.25;;;7.82;100.00
30421;BME280;17218;54.070;10.012;2023-03-21T02:46:07;101248.13;;;7.75;100.00
30421;BME280;17218;54.070;10.012;2023-03-21T02:48:37;101251.50;;;7.68;100.00
30421;BME280;17218;54.070;10.012;2023-03-21T02:51:06;101248.91;;;7.68;100.00
30421;BME280;17218;54.070;10.012;2023-03-21T02:53:39;101234.22;;;7.60;100.00
30421;BME280;17218;54.070;10.012;2023-03-21T02:56:09;101244.34;;;7.46;100.00
30421;BME280;17218;54.070;10.012;2023-03-21T02:58:36;101241.66;;;7.40;100.00
30421;BME280;17218;54.070;10.012;2023-03-21T03:01:04;101244.16;;;7.32;100.00
30421;BME280;17218;54.070;10.012;2023-03-21T03:03:33;101245.97;;;7.39;100.00
30421;BME280;17218;54.070;10.012;2023-03-21T03:06:02;101252.97;;;7.47;100.00
30421;BME280;17218;54.070;10.012;2023-03-21T03:08:40;101239.94;;;7.37;100.00
30421;BME280;17218;54.070;10.012;2023-03-21T03:11:17;101239.97;;;7.40;100.00
30421;BME280;17218;54.070;10.012;2023-03-21T03:14:03;101245.97;;;7.39;100.00
30421;BME280;17218;54.070;10.012;2023-03-21T03:16:38;101241.88;;;7.53;100.00
30421;BME280;17218;54.070;10.012;2023-03-21T03:19:12;101245.22;;;7.47;100.00
30421;BME280;17218;54.070;10.012;2023-03-21T03:21:43;101239.00;;;7.32;100.00
30421;BME280;17218;54.070;10.012;2023-03-21T03:24:17;101237.44;;;7.44;100.00
30421;BME280;17218;54.070;10.012;2023-03-21T03:26:49;101231.34;;;7.37;100.00
30421;BME280;17218;54.070;10.012;2023-03-21T03:29:20;101234.94;;;7.50;100.00
30421;BME280;17218;54.070;10.012;2023-03-21T03:31:50;101229.91;;;7.59;100.00
30421;BME280;17218;54.070;10.012;2023-03-21T03:34:22;101231.56;;;7.54;100.00
30421;BME280;17218;54.070;10.012;2023-03-21T03:36:54;101233.38;;;7.60;100.00
30421;BME280;17218;54.070;10.012;2023-03-21T03:39:26;101237.66;;;7.61;100.00
30421;BME280;17218;54.070;10.012;2023-03-21T03:42:00;101221.25;;;7.53;100.00
30421;BME280;17218;54.070;10.012;2023-03-21T03:44:28;101227.13;;;7.45;100.00
30421;BME280;17218;54.070;10.012;2023-03-21T03:46:58;101224.63;;;7.48;100.00
30421;BME280;17218;54.070;10.012;2023-03-21T03:49:30;101221.06;;;7.40;100.00
30421;BME280;17218;54.070;10.012;2023-03-21T03:52:01;101222.78;;;7.39;100.00
30421;BME280;17218;54.070;10.012;2023-03-21T03:54:33;101221.78;;;7.31;100.00
30421;BME280;17218;54.070;10.012;2023-03-21T03:57:02;101220.09;;;7.33;100.00
30421;BME280;17218;54.070;10.012;2023-03-21T03:59:32;101220.97;;;7.32;100.00
30421;BME280;17218;54.070;10.012;2023-03-21T04:01:59;101227.06;;;7.37;100.00
30421;BME280;17218;54.070;10.012;2023-03-21T04:04:25;101228.06;;;7.49;100.00
30421;BME280;17218;54.070;10.012;2023-03-21T04:06:53;101230.59;;;7.46;100.00
30421;BME280;17218;54.070;10.012;2023-03-21T04:09:20;101229.88;;;7.56;100.00
30421;BME280;17218;54.070;10.012;2023-03-21T04:11:48;101234.22;;;7.60;100.00
30421;BME280;17218;54.070;10.012;2023-03-21T04:14:14;101230.94;;;7.74;100.00
30421;BME280;17218;54.070;10.012;2023-03-21T04:16:41;101229.22;;;7.73;100.00
30421;BME280;17218;54.070;10.012;2023-03-21T04:19:07;101230.19;;;7.81;100.00
30421;BME280;17218;54.070;10.012;2023-03-21T04:21:34;101234.47;;;7.82;100.00
30421;BME280;17218;54.070;10.012;2023-03-21T04:24:00;101225.09;;;7.87;100.00
30421;BME280;17218;54.070;10.012;2023-03-21T04:26:27;101227.56;;;7.78;100.00
30421;BME280;17218;54.070;10.012;2023-03-21T04:28:59;101224.84;;;7.67;100.00
30421;BME280;17218;54.070;10.012;2023-03-21T04:31:26;101224.03;;;7.71;100.00
30421;BME280;17218;54.070;10.012;2023-03-21T04:33:55;101216.28;;;7.71;100.00
30421;BME280;17218;54.070;10.012;2023-03-21T04:36:22;101215.28;;;7.58;100.00
30421;BME280;17218;54.070;10.012;2023-03-21T04:38:51;101211.97;;;7.67;100.00
30421;BME280;17218;54.070;10.012;2023-03-21T04:41:18;101206.06;;;7.76;100.00
30421;BME280;17218;54.070;10.012;2023-03-21T04:43:45;101214.59;;;7.73;100.00
30421;BME280;17218;54.070;10.012;2023-03-21T04:46:12;101212.00;;;7.70;100.00
30421;BME280;17218;54.070;10.012;2023-03-21T04:48:39;101207.59;;;7.61;100.00
30421;BME280;17218;54.070;10.012;2023-03-21T04:51:06;101209.19;;;7.51;100.00
30421;BME280;17218;54.070;10.012;2023-03-21T04:53:32;101205.84;;;7.59;100.00
30421;BME280;17218;54.070;10.012;2023-03-21T04:55:59;101201.34;;;7.45;100.00
30421;BME280;17218;54.070;10.012;2023-03-21T04:58:25;101208.03;;;7.31;100.00
30421;BME280;17218;54.070;10.012;2023-03-21T05:00:52;101207.09;;;7.25;100.00
30421;BME280;17218;54.070;10.012;2023-03-21T05:03:20;101211.38;;;7.23;100.00
30421;BME280;17218;54.070;10.012;2023-03-21T05:05:46;101212.28;;;7.27;100.00
30421;BME280;17218;54.070;10.012;2023-03-21T05:08:13;101203.84;;;7.37;100.00
30421;BME280;17218;54.070;10.012;2023-03-21T05:10:40;101212.41;;;7.36;100.00
30421;BME280;17218;54.070;10.012;2023-03-21T05:13:07;101208.94;;;7.34;100.00
30421;BME280;17218;54.070;10.012;2023-03-21T05:15:33;101202.88;;;7.31;100.00
30421;BME280;17218;54.070;10.012;2023-03-21T05:18:00;101208.00;;;7.27;100.00
30421;BME280;17218;54.070;10.012;2023-03-21T05:20:36;101207.09;;;7.24;100.00
30421;BME280;17218;54.070;10.012;2023-03-21T05:23:02;101206.31;;;7.28;100.00
30421;BME280;17218;54.070;10.012;2023-03-21T05:25:29;101211.25;;;7.14;100.00
30421;BME280;17218;54.070;10.012;2023-03-21T05:27:59;101212.22;;;7.21;100.00
30421;BME280;17218;54.070;10.012;2023-03-21T05:30:26;101215.84;;;7.34;100.00
30421;BME280;17218;54.070;10.012;2023-03-21T05:32:53;101210.47;;;7.20;100.00
30421;BME280;17218;54.070;10.012;2023-03-21T05:35:20;101215.53;;;7.13;100.00
30421;BME280;17218;54.070;10.012;2023-03-21T05:37:48;101206.09;;;7.14;100.00
30421;BME280;17218;54.070;10.012;2023-03-21T05:40:14;101201.94;;;7.22;100.00
30421;BME280;17218;54.070;10.012;2023-03-21T05:42:41;101209.50;;;7.11;100.00
30421;BME280;17218;54.070;10.012;2023-03-21T05:45:08;101202.81;;;7.23;100.00
30421;BME280;17218;54.070;10.012;2023-03-21T05:47:35;101201.97;;;7.25;100.00
30421;BME280;17218;54.070;10.012;2023-03-21T05:50:01;101202.09;;;7.35;100.00
30421;BME280;17218;54.070;10.012;2023-03-21T05:52:28;101193.34;;;7.25;100.00
30421;BME280;17218;54.070;10.012;2023-03-21T05:54:56;101190.81;;;7.26;100.00
30421;BME280;17218;54.070;10.012;2023-03-21T05:57:22;101198.50;;;7.23;100.00
30421;BME280;17218;54.070;10.012;2023-03-21T05:59:49;101201.03;;;7.20;100.00
30421;BME280;17218;54.070;10.012;2023-03-21T06:02:15;101199.34;;;7.22;100.00
30421;BME280;17218;54.070;10.012;2023-03-21T06:04:42;101198.56;;;7.26;100.00
30421;BME280;17218;54.070;10.012;2023-03-21T06:07:08;101198.59;;;7.31;100.00
30421;BME280;17218;54.070;10.012;2023-03-21T06:09:35;101194.38;;;7.36;100.00
30421;BME280;17218;54.070;10.012;2023-03-21T06:12:03;101204.66;;;7.33;100.00
30421;BME280;17218;54.070;10.012;2023-03-21T06:14:29;101195.22;;;7.35;100.00
30421;BME280;17218;54.070;10.012;2023-03-21T06:16:56;101203.91;;;7.44;100.00
30421;BME280;17218;54.070;10.012;2023-03-21T06:19:22;101196.25;;;7.47;100.00
30421;BME280;17218;54.070;10.012;2023-03-21T06:21:50;101193.66;;;7.47;100.00
30421;BME280;17218;54.070;10.012;2023-03-21T06:24:16;101191.97;;;7.49;100.00
30421;BME280;17218;54.070;10.012;2023-03-21T06:26:43;101195.38;;;7.46;100.00
30421;BME280;17218;54.070;10.012;2023-03-21T06:29:11;101191.78;;;7.35;100.00
30421;BME280;17218;54.070;10.012;2023-03-21T06:31:38;101199.63;;;7.44;100.00
30421;BME280;17218;54.070;10.012;2023-03-21T06:34:05;101195.28;;;7.42;100.00
30421;BME280;17218;54.070;10.012;2023-03-21T06:36:31;101191.88;;;7.41;100.00
30421;BME280;17218;54.070;10.012;2023-03-21T06:38:57;101199.59;;;7.41;100.00
30421;BME280;17218;54.070;10.012;2023-03-21T06:41:24;101195.50;;;7.56;100.00
30421;BME280;17218;54.070;10.012;2023-03-21T06:43:51;101196.41;;;7.61;100.00
30421;BME280;17218;54.070;10.012;2023-03-21T06:46:18;101193.78;;;7.56;100.00
30421;BME280;17218;54.070;10.012;2023-03-21T06:48:45;101189.47;;;7.55;100.00
30421;BME280;17218;54.070;10.012;2023-03-21T06:51:13;101182.75;;;7.68;100.00
30421;BME280;17218;54.070;10.012;2023-03-21T06:53:39;101187.03;;;7.68;100.00
30421;BME280;17218;54.070;10.012;2023-03-21T06:56:07;101190.63;;;7.81;100.00
30421;BME280;17218;54.070;10.012;2023-03-21T06:58:34;101191.53;;;7.86;100.00
30421;BME280;17218;54.070;10.012;2023-03-21T07:01:01;101195.75;;;7.78;100.00
30421;BME280;17218;54.070;10.012;2023-03-21T07:03:30;101177.69;;;7.76;100.00
30421;BME280;17218;54.070;10.012;2023-03-21T07:05:57;101186.34;;;7.84;100.00
30421;BME280;17218;54.070;10.012;2023-03-21T07:08:23;101184.75;;;7.93;100.00
30421;BME280;17218;54.070;10.012;2023-03-21T07:10:55;101190.59;;;7.79;100.00
30421;BME280;17218;54.070;10.012;2023-03-21T07:13:22;101194.88;;;7.77;100.00
30421;BME280;17218;54.070;10.012;2023-03-21T07:15:48;101185.44;;;7.79;100.00
30421;BME280;17218;54.070;10.012;2023-03-21T07:18:15;101189.09;;;7.98;100.00
30421;BME280;17218;54.070;10.012;2023-03-21T07:20:45;101184.75;;;7.96;100.00
30421;BME280;17218;54.070;10.012;2023-03-21T07:23:12;101185.66;;;7.99;100.00
30421;BME280;17218;54.070;10.012;2023-03-21T07:25:38;101190.81;;;7.96;100.00
30421;BME280;17218;54.070;10.012;2023-03-21T07:28:05;101184.75;;;7.96;100.00
30421;BME280;17218;54.070;10.012;2023-03-21T07:30:33;101181.34;;;7.97;100.00
30421;BME280;17218;54.070;10.012;2023-03-21T07:33:00;101180.47;;;7.95;100.00
30421;BME280;17218;54.070;10.012;2023-03-21T07:35:27;101178.59;;;7.83;100.00
30421;BME280;17218;54.070;10.012;2023-03-21T07:37:55;101193.25;;;7.84;100.00
30421;BME280;17218;54.070;10.012;2023-03-21T07:40:22;101184.56;;;7.79;100.00
30421;BME280;17218;54.070;10.012;2023-03-21T07:42:48;101189.78;;;7.82;100.00
30421;BME280;17218;54.070;10.012;2023-03-21T07:45:15;101193.38;;;7.98;100.00
30421;BME280;17218;54.070;10.012;2023-03-21T07:47:45;101179.72;;;8.08;100.00
30421;BME280;17218;54.070;10.012;2023-03-21T07:50:12;101180.59;;;8.09;100.00
30421;BME280;17218;54.070;10.012;2023-03-21T07:52:38;101187.47;;;8.08;100.00
30421;BME280;17218;54.070;10.012;2023-03-21T07:55:07;101184.94;;;8.13;100.00
30421;BME280;17218;54.070;10.012;2023-03-21T07:57:34;101181.50;;;8.13;100.00
30421;BME280;17218;54.070;10.012;2023-03-21T08:00:01;101183.16;;;8.06;100.00
30421;BME280;17218;54.070;10.012;2023-03-21T08:02:28;101190.03;;;8.08;100.00
30421;BME280;17218;54.070;10.012;2023-03-21T08:04:55;101188.22;;;7.98;100.00
30421;BME280;17218;54.070;10.012;2023-03-21T08:07:21;101193.50;;;8.10;100.00
30421;BME280;17218;54.070;10.012;2023-03-21T08:09:47;101186.75;;;8.22;100.00
30421;BME280;17218;54.070;10.012;2023-03-21T08:12:15;101190.16;;;8.19;100.00
30421;BME280;17218;54.070;10.012;2023-03-21T08:14:42;101191.03;;;8.18;100.00
30421;BME280;17218;54.070;10.012;2023-03-21T08:17:09;101179.88;;;8.21;100.00
30421;BME280;17218;54.070;10.012;2023-03-21T08:19:35;101178.19;;;8.25;100.00
30421;BME280;17218;54.070;10.012;2023-03-21T08:22:02;101178.22;;;8.31;100.00
30421;BME280;17218;54.070;10.012;2023-03-21T08:24:30;101176.34;;;8.16;100.00
30421;BME280;17218;54.070;10.012;2023-03-21T08:26:58;101172.13;;;8.21;100.00
30421;BME280;17218;54.070;10.012;2023-03-21T08:29:26;101179.81;;;8.15;100.00
30421;BME280;17218;54.070;10.012;2023-03-21T08:31:53;101183.25;;;8.15;100.00
30421;BME280;17218;54.070;10.012;2023-03-21T08:34:20;101172.09;;;8.19;100.00
30421;BME280;17218;54.070;10.012;2023-03-21T08:36:47;101184.03;;;8.08;100.00
30421;BME280;17218;54.070;10.012;2023-03-21T08:39:13;101178.84;;;8.05;100.00
30421;BME280;17218;54.070;10.012;2023-03-21T08:41:40;101177.22;;;8.16;100.00
30421;BME280;17218;54.070;10.012;2023-03-21T08:44:06;101165.25;;;8.23;100.00
30421;BME280;17218;54.070;10.012;2023-03-21T08:46:34;101173.03;;;8.28;100.00
30421;BME280;17218;54.070;10.012;2023-03-21T08:49:01;101183.47;;;8.40;100.00
30421;BME280;17218;54.070;10.012;2023-03-21T08:51:27;101170.66;;;8.54;100.00
30421;BME280;17218;54.070;10.012;2023-03-21T08:53:53;101169.88;;;8.60;100.00
30421;BME280;17218;54.070;10.012;2023-03-21T08:56:20;101170.78;;;8.62;100.00
30421;BME280;17218;54.070;10.012;2023-03-21T08:58:47;101174.09;;;8.50;100.00
30421;BME280;17218;54.070;10.012;2023-03-21T09:01:13;101178.38;;;8.48;100.00
30421;BME280;17218;54.070;10.012;2023-03-21T09:03:42;101170.63;;;8.46;100.00
30421;BME280;17218;54.070;10.012;2023-03-21T09:06:09;101166.28;;;8.44;100.00
30421;BME280;17218;54.070;10.012;2023-03-21T09:08:38;101171.47;;;8.45;100.00
30421;BME280;17218;54.070;10.012;2023-03-21T09:11:06;101175.81;;;8.50;100.00
30421;BME280;17218;54.070;10.012;2023-03-21T09:13:32;101175.91;;;8.56;100.00
30421;BME280;17218;54.070;10.012;2023-03-21T09:15:59;101163.00;;;8.59;100.00
30421;BME280;17218;54.070;10.012;2023-03-21T09:18:26;101175.94;;;8.62;100.00
30421;BME280;17218;54.070;10.012;2023-03-21T09:21:11;101164.75;;;8.62;100.00
30421;BME280;17218;54.070;10.012;2023-03-21T09:23:39;101165.47;;;8.46;100.00
30421;BME280;17218;54.070;10.012;2023-03-21T09:26:06;101168.88;;;8.42;100.00
30421;BME280;17218;54.070;10.012;2023-03-21T09:28:33;101169.06;;;8.63;100.00
30421;BME280;17218;54.070;10.012;2023-03-21T09:31:01;101172.53;;;8.66;100.00
30421;BME280;17218;54.070;10.012;2023-03-21T09:33:28;101163.00;;;8.57;100.00
30421;BME280;17218;54.070;10.012;2023-03-21T09:35:55;101165.59;;;8.59;100.00
30421;BME280;17218;54.070;10.012;2023-03-21T09:38:26;101166.47;;;8.61;100.00
30421;BME280;17218;54.070;10.012;2023-03-21T09:41:04;101161.31;;;8.61;100.00
30421;BME280;17218;54.070;10.012;2023-03-21T09:43:41;101169.16;;;8.75;100.00
30421;BME280;17218;54.070;10.012;2023-03-21T09:46:18;101164.84;;;8.73;100.00
30421;BME280;17218;54.070;10.012;2023-03-21T09:48:55;101158.81;;;8.75;100.00
30421;BME280;17218;54.070;10.012;2023-03-21T09:51:25;101154.56;;;8.82;100.00
30421;BME280;17218;54.070;10.012;2023-03-21T09:53:54;101157.94;;;8.71;100.00
30421;BME280;17218;54.070;10.012;2023-03-21T09:56:23;101163.16;;;8.81;100.00
30421;BME280;17218;54.070;10.012;2023-03-21T09:58:51;101158.03;;;8.87;100.00
30421;BME280;17218;54.070;10.012;2023-03-21T10:01:22;101156.28;;;8.80;100.00
30421;BME280;17218;54.070;10.012;2023-03-21T10:03:53;101152.78;;;8.75;100.00
30421;BME280;17218;54.070;10.012;2023-03-21T10:06:21;101154.59;;;8.91;100.00
30421;BME280;17218;54.070;10.012;2023-03-21T10:08:57;101163.97;;;8.77;100.00
30421;BME280;17218;54.070;10.012;2023-03-21T10:11:27;101149.44;;;8.88;100.00
30421;BME280;17218;54.070;10.012;2023-03-21T10:13:58;101164.88;;;8.80;100.00
30421;BME280;17218;54.070;10.012;2023-03-21T10:16:29;101152.84;;;8.82;100.00
30421;BME280;17218;54.070;10.012;2023-03-21T10:18:58;101156.34;;;8.95;100.00
30421;BME280;17218;54.070;10.012;2023-03-21T10:21:27;101145.13;;;8.90;100.00
30421;BME280;17218;54.070;10.012;2023-03-21T10:23:56;101146.00;;;8.89;100.00
30421;BME280;17218;54.070;10.012;2023-03-21T10:26:25;101146.78;;;8.79;100.00
30421;BME280;17218;54.070;10.012;2023-03-21T10:28:53;101141.72;;;8.93;100.00
30421;BME280;17218;54.070;10.012;2023-03-21T10:31:24;101145.25;;;9.07;100.00
30421;BME280;17218;54.070;10.012;2023-03-21T10:33:53;101135.75;;;9.03;100.00
30421;BME280;17218;54.070;10.012;2023-03-21T10:36:22;101140.09;;;9.11;100.00
30421;BME280;17218;54.070;10.012;2023-03-21T10:38:53;101137.38;;;8.92;100.00
30421;BME280;17218;54.070;10.012;2023-03-21T10:41:22;101135.75;;;9.08;100.00
30421;BME280;17218;54.070;10.012;2023-03-21T10:44:03;101132.28;;;8.97;100.00
30421;BME280;17218;54.070;10.012;2023-03-21T10:46:30;101139.16;;;8.99;100.00
30421;BME280;17218;54.070;10.012;2023-03-21T10:48:57;101140.03;;;8.97;100.00
30421;BME280;17218;54.070;10.012;2023-03-21T10:51:26;101129.75;;;9.07;100.00
30421;BME280;17218;54.070;10.012;2023-03-21T10:53:55;101124.63;;;9.17;100.00
30421;BME280;17218;54.070;10.012;2023-03-21T10:56:25;101118.63;;;9.24;100.00
30421;BME280;17218;54.070;10.012;2023-03-21T10:58:53;101123.00;;;9.41;100.00
30421;BME280;17218;54.070;10.012;2023-03-21T11:01:26;101106.53;;;9.22;100.00
30421;BME280;17218;54.070;10.012;2023-03-21T11:03:57;101121.25;;;9.34;100.00
30421;BME280;17218;54.070;10.012;2023-03-21T11:06:29;101115.25;;;9.44;100.00
30421;BME280;17218;54.070;10.012;2023-03-21T11:09:00;101110.94;;;9.45;100.00
30421;BME280;17218;54.070;10.012;2023-03-21T11:11:37;101098.88;;;9.47;100.00
30421;BME280;17218;54.070;10.012;2023-03-21T11:14:06;101104.03;;;9.45;100.00
30421;BME280;17218;54.070;10.012;2023-03-21T11:16:37;101106.59;;;9.43;100.00
30421;BME280;17218;54.070;10.012;2023-03-21T11:19:13;101105.78;;;9.45;100.00
30421;BME280;17218;54.070;10.012;2023-03-21T11:21:40;101101.44;;;9.43;100.00
30421;BME280;17218;54.070;10.012;2023-03-21T11:24:11;101099.69;;;9.39;100.00
30421;BME280;17218;54.070;10.012;2023-03-21T11:26:42;101101.47;;;9.50;100.00
30421;BME280;17218;54.070;10.012;2023-03-21T11:29:19;101091.13;;;9.56;100.00
30421;BME280;17218;54.070;10.012;2023-03-21T11:31:49;101096.34;;;9.67;100.00
30421;BME280;17218;54.070;10.012;2023-03-21T11:34:24;101098.06;;;9.65;100.00
30421;BME280;17218;54.070;10.012;2023-03-21T11:36:52;101088.59;;;9.78;100.00
30421;BME280;17218;54.070;10.012;2023-03-21T11:39:34;101084.28;;;9.88;100.00
30421;BME280;17218;54.070;10.012;2023-03-21T11:42:13;101080.84;;;9.94;100.00
30421;BME280;17218;54.070;10.012;2023-03-21T11:44:58;101079.13;;;9.96;100.00
30421;BME280;17218;54.070;10.012;2023-03-21T11:47:25;101073.94;;;10.00;100.00
30421;BME280;17218;54.070;10.012;2023-03-21T11:49:52;101067.88;;;9.75;100.00
30421;BME280;17218;54.070;10.012;2023-03-21T11:52:24;101073.06;;;9.67;100.00
30421;BME280;17218;54.070;10.012;2023-03-21T11:55:16;101067.88;;;9.72;100.00
30421;BME280;17218;54.070;10.012;2023-03-21T11:57:56;101067.03;;;9.74;100.00
30421;BME280;17218;54.070;10.012;2023-03-21T12:00:29;101067.91;;;9.70;100.00
30421;BME280;17218;54.070;10.012;2023-03-21T12:03:26;101056.69;;;9.74;100.00
30421;BME280;17218;54.070;10.012;2023-03-21T12:05:59;101054.91;;;9.53;100.00
30421;BME280;17218;54.070;10.012;2023-03-21T12:08:33;101057.53;;;9.58;100.00
30421;BME280;17218;54.070;10.012;2023-03-21T12:11:11;101060.94;;;9.60;100.00
30421;BME280;17218;54.070;10.012;2023-03-21T12:13:50;101045.47;;;9.64;100.00
30421;BME280;17218;54.070;10.012;2023-03-21T12:16:33;101055.78;;;9.69;100.00
30421;BME280;17218;54.070;10.012;2023-03-21T12:19:15;101052.38;;;9.72;100.00
30421;BME280;17218;54.070;10.012;2023-03-21T12:21:53;101046.34;;;9.76;100.00
30421;BME280;17218;54.070;10.012;2023-03-21T12:26:59;101035.13;;;9.64;100.00
30421;BME280;17218;54.070;10.012;2023-03-21T12:30:04;101040.31;;;9.82;100.00
30421;BME280;17218;54.070;10.012;2023-03-21T12:32:47;101024.75;;;9.69;100.00
30421;BME280;17218;54.070;10.012;2023-03-21T12:35:26;101025.66;;;9.87;100.00
30421;BME280;17218;54.070;10.012;2023-03-21T12:38:02;101024.78;;;9.88;100.00
30421;BME280;17218;54.070;10.012;2023-03-21T12:40:43;101022.19;;;9.72;100.00
30421;BME280;17218;54.070;10.012;2023-03-21T12:43:25;101017.03;;;9.72;100.00
30421;BME280;17218;54.070;10.012;2023-03-21T12:45:55;101003.22;;;9.84;100.00
30421;BME280;17218;54.070;10.012;2023-03-21T12:48:29;100996.31;;;9.94;100.00
30421;BME280;17218;54.070;10.012;2023-03-21T12:50:59;101000.63;;;9.89;100.00
30421;BME280;17218;54.070;10.012;2023-03-21T12:53:38;100998.03;;;10.00;100.00
30421;BME280;17218;54.070;10.012;2023-03-21T12:56:10;100999.75;;;10.02;100.00
30421;BME280;17218;54.070;10.012;2023-03-21T12:58:44;101000.63;;;9.98;100.00
30421;BME280;17218;54.070;10.012;2023-03-21T13:01:14;100993.72;;;9.99;100.00